Time;durP1;ratioP1;P1;durP2;ratioP2;P2;SDS_P1;SDS_P2;PMS_P1;PMS_P2;Temp;Humidity;BMP_temperature;BMP_pressure;BME280_temperature;BME280_humidity;BME280_pressure;Samples;Min_cycle;Max_cycle;Signal;HPM_P1;HPM_P2
2022/01/19 00:00:44;;;;;;;;;;;;;;;18.09;62.25;102314.53;5028825;28;1977;-37
2022/01/19 00:03:19;;;;;;;;;;;;;;;18.06;62.83;102330.78;5015128;28;1739;-36
2022/01/19 00:05:49;;;;;;;;;;;;;;;18.05;62.52;102326.38;5019999;28;1715;-37
2022/01/19 00:08:22;;;;;;;;;;;;;;;18.06;62.54;102338.81;5025074;28;1076;-36
2022/01/19 00:10:53;;;;;;;;;;;;;;;18.04;62.49;102340.72;5022113;28;2012;-37
2022/01/19 00:13:20;;;;;;;;;;;;;;;18.01;62.66;102340.91;5031718;28;1556;-36
2022/01/19 00:15:49;;;;;;;;;;;;;;;17.99;62.63;102342.81;5022998;28;1824;-36
2022/01/19 00:18:17;;;;;;;;;;;;;;;17.95;62.71;102360.00;5031699;28;2036;-36
2022/01/19 00:20:45;;;;;;;;;;;;;;;17.95;62.81;102362.69;5034386;28;1927;-37
2022/01/19 00:23:15;;;;;;;;;;;;;;;17.96;62.97;102351.88;5018633;28;1136;-36
2022/01/19 00:25:58;;;;;;;;;;;;;;;17.97;62.38;102358.97;5026459;28;1814;-36
2022/01/19 00:28:35;;;;;;;;;;;;;;;17.98;62.63;102373.19;5029537;28;1541;-36
2022/01/19 00:31:02;;;;;;;;;;;;;;;18.02;62.50;102361.34;5026172;28;1927;-36
2022/01/19 00:33:32;;;;;;;;;;;;;;;17.98;62.53;102365.16;5026974;28;2086;-36
2022/01/19 00:36:03;;;;;;;;;;;;;;;17.98;62.59;102370.53;5018501;28;1777;-36
2022/01/19 00:38:29;;;;;;;;;;;;;;;17.99;62.59;102380.28;5023917;28;1822;-36
2022/01/19 00:41:01;;;;;;;;;;;;;;;17.96;62.68;102365.25;5020651;28;1906;-36
2022/01/19 00:43:31;;;;;;;;;;;;;;;17.95;62.40;102365.38;5029690;28;1460;-36
2022/01/19 00:46:00;;;;;;;;;;;;;;;17.97;62.48;102368.81;5028069;28;1669;-36
2022/01/19 00:48:31;;;;;;;;;;;;;;;17.96;62.30;102351.00;5027707;28;1557;-36
2022/01/19 00:50:58;;;;;;;;;;;;;;;17.94;62.38;102352.91;5025472;28;1824;-36
2022/01/19 00:53:37;;;;;;;;;;;;;;;17.91;62.38;102370.03;5026904;28;1785;-37
2022/01/19 00:58:50;;;;;;;;;;;;;;;17.89;62.26;102369.25;5018002;28;1608;-36
2022/01/19 01:01:19;;;;;;;;;;;;;;;17.90;62.17;102360.25;5014281;28;1977;-36
2022/01/19 01:03:46;;;;;;;;;;;;;;;17.85;62.42;102360.53;5019747;28;1378;-36
2022/01/19 01:06:15;;;;;;;;;;;;;;;17.85;62.16;102368.56;5017305;28;1704;-36
2022/01/19 01:08:44;;;;;;;;;;;;;;;17.85;62.41;102355.19;5019391;28;1147;-36
2022/01/19 01:11:17;;;;;;;;;;;;;;;17.80;62.07;102364.38;5014428;28;1906;-36
2022/01/19 01:16:39;;;;;;;;;;;;;;;17.77;62.21;102361.91;5019630;28;1941;-36
2022/01/19 01:19:08;;;;;;;;;;;;;;;17.77;62.27;102344.03;5018650;28;2007;-36
2022/01/19 01:21:35;;;;;;;;;;;;;;;17.78;62.15;102347.56;5029300;28;2071;-36
2022/01/19 01:24:04;;;;;;;;;;;;;;;17.79;62.09;102343.94;5025267;28;1688;-36
2022/01/19 01:26:44;;;;;;;;;;;;;;;17.72;62.12;102343.41;5021656;28;1662;-36
2022/01/19 01:29:10;;;;;;;;;;;;;;;17.67;62.30;102346.38;5026143;28;1659;-36
2022/01/19 01:31:40;;;;;;;;;;;;;;;17.70;62.30;102345.31;5014246;28;1060;-36
2022/01/19 01:34:08;;;;;;;;;;;;;;;17.68;61.79;102339.19;5017872;28;1848;-36
2022/01/19 01:36:35;;;;;;;;;;;;;;;17.71;62.07;102336.38;5030682;28;1393;-36
2022/01/19 01:39:03;;;;;;;;;;;;;;;17.77;61.60;102338.69;5027758;28;2081;-36
2022/01/19 01:41:34;;;;;;;;;;;;;;;17.81;61.71;102358.97;5024977;28;1906;-36
2022/01/19 01:44:06;;;;;;;;;;;;;;;17.73;61.83;102339.81;5018722;28;1836;-36
2022/01/19 01:46:42;;;;;;;;;;;;;;;17.76;61.84;102347.66;5028848;28;1680;-36
2022/01/19 01:49:25;;;;;;;;;;;;;;;17.74;61.94;102360.25;5029307;28;1960;-36
2022/01/19 01:54:40;;;;;;;;;;;;;;;17.70;61.77;102370.25;5019701;28;1552;-37
2022/01/19 01:57:08;;;;;;;;;;;;;;;17.73;61.75;102366.56;5023904;28;1819;-36
2022/01/19 01:59:38;;;;;;;;;;;;;;;17.71;61.87;102368.47;5017690;28;1586;-36
2022/01/19 02:02:07;;;;;;;;;;;;;;;17.68;61.91;102355.25;5031449;28;1967;-37
2022/01/19 02:04:40;;;;;;;;;;;;;;;17.69;61.94;102343.63;5019555;28;1482;-36
2022/01/19 02:07:32;;;;;;;;;;;;;;;17.68;61.71;102355.25;5013822;28;1811;-36
2022/01/19 02:10:15;;;;;;;;;;;;;;;17.70;61.63;102366.72;5015962;28;1728;-36
2022/01/19 02:23:47;;;;;;;;;;;;;;;17.67;61.65;102351.72;5020028;28;1453;-37
2022/01/19 02:26:20;;;;;;;;;;;;;;;17.67;61.61;102349.06;5019326;28;1304;-37
2022/01/19 02:29:08;;;;;;;;;;;;;;;17.63;61.72;102360.03;5031145;28;1627;-36
2022/01/19 02:40:16;;;;;;;;;;;;;;;17.91;60.44;102382.56;5031156;28;1739;-36
2022/01/19 02:42:55;;;;;;;;;;;;;;;18.27;59.62;102377.69;5028864;28;1048;-36
2022/01/19 02:51:05;;;;;;;;;;;;;;;18.78;57.55;102393.41;5020043;28;1409;-37
2022/01/19 02:53:38;;;;;;;;;;;;;;;18.87;57.54;102386.63;5020900;28;1725;-37
2022/01/19 02:56:09;;;;;;;;;;;;;;;18.88;57.66;102383.84;5027317;28;2006;-36
2022/01/19 03:09:36;;;;;;;;;;;;;;;18.56;58.61;102398.31;4993913;28;1578;-33
2022/01/19 03:12:04;;;;;;;;;;;;;;;18.49;58.58;102389.81;4993966;28;1453;-32
2022/01/19 03:14:30;;;;;;;;;;;;;;;18.48;58.73;102396.09;4982082;28;1155;-32
2022/01/19 03:16:58;;;;;;;;;;;;;;;18.41;58.78;102405.47;4994959;28;1112;-32
2022/01/19 03:19:26;;;;;;;;;;;;;;;18.33;58.96;102413.97;4980313;28;1780;-32
2022/01/19 03:21:53;;;;;;;;;;;;;;;18.27;59.09;102404.47;4981792;28;1906;-32
2022/01/19 03:24:37;;;;;;;;;;;;;;;18.22;59.35;102403.91;4987913;28;1821;-33
2022/01/19 03:27:10;;;;;;;;;;;;;;;18.16;59.08;102401.56;4987211;28;1816;-32
2022/01/19 03:29:44;;;;;;;;;;;;;;;18.14;59.05;102422.19;4988300;28;1395;-33
2022/01/19 03:32:11;;;;;;;;;;;;;;;18.10;59.03;102409.94;4996591;28;1811;-33
2022/01/19 03:34:39;;;;;;;;;;;;;;;18.05;59.18;102426.28;4980683;28;1066;-32
2022/01/19 03:37:06;;;;;;;;;;;;;;;18.05;59.07;102420.09;4984129;28;1501;-32
2022/01/19 03:39:36;;;;;;;;;;;;;;;18.01;59.26;102423.88;4987253;28;1875;-32
2022/01/19 03:42:04;;;;;;;;;;;;;;;17.96;59.29;102416.09;4983693;28;1902;-32
2022/01/19 03:44:36;;;;;;;;;;;;;;;17.93;59.00;102415.44;4986454;28;1258;-32
2022/01/19 03:47:04;;;;;;;;;;;;;;;17.89;59.41;102423.63;4997302;28;2162;-32
2022/01/19 03:49:34;;;;;;;;;;;;;;;17.89;59.26;102417.44;4977582;28;1791;-32
2022/01/19 03:52:02;;;;;;;;;;;;;;;17.85;59.35;102426.59;4979140;28;1817;-32
2022/01/19 03:54:37;;;;;;;;;;;;;;;17.82;59.64;102432.91;4992177;28;1856;-32
2022/01/19 03:57:04;;;;;;;;;;;;;;;17.77;59.39;102448.38;4994866;28;1590;-32
2022/01/19 03:59:35;;;;;;;;;;;;;;;17.80;59.49;102440.16;4992009;28;1760;-32
2022/01/19 04:02:03;;;;;;;;;;;;;;;17.74;59.47;102429.81;4988437;28;1989;-32
2022/01/19 04:04:37;;;;;;;;;;;;;;;17.74;59.65;102431.63;4992028;28;1647;-32
2022/01/19 04:07:11;;;;;;;;;;;;;;;17.76;59.33;102421.72;4987056;28;1793;-32
2022/01/19 04:09:39;;;;;;;;;;;;;;;17.84;59.37;102440.91;4978722;28;1925;-33
2022/01/19 04:12:07;;;;;;;;;;;;;;;17.73;59.54;102444.16;4984063;28;1452;-33
2022/01/19 04:14:38;;;;;;;;;;;;;;;17.71;59.69;102451.41;4982109;28;1296;-32
2022/01/19 04:17:14;;;;;;;;;;;;;;;17.67;59.87;102465.91;4988262;28;1533;-32
2022/01/19 04:19:43;;;;;;;;;;;;;;;17.65;59.87;102459.78;4980539;28;1147;-32
2022/01/19 04:22:13;;;;;;;;;;;;;;;17.75;59.54;102463.66;4983681;28;1906;-32
2022/01/19 04:24:41;;;;;;;;;;;;;;;17.77;59.51;102456.41;4980742;28;1687;-32
2022/01/19 04:30:07;;;;;;;;;;;;;;;17.75;59.59;102462.81;4975142;28;1724;-34
2022/01/19 04:32:44;;;;;;;;;;;;;;;17.75;59.44;102466.34;4975901;28;1820;-33
2022/01/19 04:35:15;;;;;;;;;;;;;;;17.72;59.49;102455.78;4979487;28;1998;-33
2022/01/19 04:46:46;;;;;;;;;;;;;;;17.53;59.87;102460.44;4984077;28;826;-33
2022/01/19 04:54:15;;;;;;;;;;;;;;;17.63;59.74;102461.69;4988247;28;2072;-32
2022/01/19 05:03:27;;;;;;;;;;;;;;;17.63;59.84;102480.41;4988826;28;1836;-32
2022/01/19 05:06:00;;;;;;;;;;;;;;;17.60;59.79;102483.25;4992028;28;1277;-32
2022/01/19 05:14:04;;;;;;;;;;;;;;;17.53;59.94;102468.47;4991605;28;1322;-33
2022/01/19 05:16:38;;;;;;;;;;;;;;;17.52;59.85;102482.81;4987779;28;1400;-32
2022/01/19 05:19:10;;;;;;;;;;;;;;;17.53;59.84;102496.09;4988386;28;1871;-33
2022/01/19 05:21:36;;;;;;;;;;;;;;;17.54;59.69;102494.28;5001064;28;2027;-32
2022/01/19 05:24:06;;;;;;;;;;;;;;;17.55;59.63;102487.97;4995788;28;1591;-32
2022/01/19 05:26:35;;;;;;;;;;;;;;;17.54;59.62;102478.22;4997403;28;1572;-33
2022/01/19 05:29:02;;;;;;;;;;;;;;;17.62;59.57;102486.69;4985692;28;1787;-32
2022/01/19 05:31:29;;;;;;;;;;;;;;;17.59;59.61;102506.47;4995240;28;1592;-33
2022/01/19 05:33:55;;;;;;;;;;;;;;;17.84;58.81;102502.44;4981983;28;1795;-33
2022/01/19 05:36:25;;;;;;;;;;;;;;;18.32;58.08;102497.94;4981246;28;1269;-33
2022/01/19 05:38:53;;;;;;;;;;;;;;;18.76;56.37;102496.25;4979257;28;1616;-32
2022/01/19 05:41:21;;;;;;;;;;;;;;;18.92;56.27;102497.13;4976454;28;1915;-33
2022/01/19 05:43:48;;;;;;;;;;;;;;;19.00;56.77;102493.94;4990698;28;1796;-33
2022/01/19 05:46:15;;;;;;;;;;;;;;;18.96;55.86;102487.94;4974938;28;1099;-33
2022/01/19 05:48:41;;;;;;;;;;;;;;;18.99;55.95;102503.81;4982088;28;1875;-34
2022/01/19 05:51:16;;;;;;;;;;;;;;;19.04;55.79;102509.78;4979769;28;1721;-33
2022/01/19 05:53:49;;;;;;;;;;;;;;;19.04;55.74;102511.59;4981878;28;1741;-33
2022/01/19 05:56:15;;;;;;;;;;;;;;;19.05;55.89;102505.28;4988191;28;1393;-33
2022/01/19 05:58:42;;;;;;;;;;;;;;;19.11;55.79;102518.31;4985602;28;1531;-33
2022/01/19 06:01:09;;;;;;;;;;;;;;;19.18;56.61;102529.50;4992940;28;1981;-33
2022/01/19 06:03:36;;;;;;;;;;;;;;;19.19;56.28;102529.41;4986851;28;1463;-33
2022/01/19 06:06:11;;;;;;;;;;;;;;;19.30;55.78;102526.09;4980153;28;1775;-33
2022/01/19 06:09:01;;;;;;;;;;;;;;;19.27;56.67;102539.69;4982509;28;1220;-33
2022/01/19 06:11:29;;;;;;;;;;;;;;;19.41;55.34;102545.06;4991826;28;1289;-33
2022/01/19 06:13:59;;;;;;;;;;;;;;;19.51;56.77;102547.19;4992587;28;1812;-33
2022/01/19 06:16:26;;;;;;;;;;;;;;;19.45;57.34;102549.28;4984267;28;1989;-33
2022/01/19 06:18:58;;;;;;;;;;;;;;;19.40;57.60;102551.41;4991871;28;1458;-32
2022/01/19 06:21:51;;;;;;;;;;;;;;;19.56;57.67;102547.75;4989322;28;1997;-32
2022/01/19 06:24:20;;;;;;;;;;;;;;;19.48;57.61;102543.72;4993619;28;1466;-32
2022/01/19 06:26:48;;;;;;;;;;;;;;;19.72;56.92;102543.19;4995537;28;1580;-32
2022/01/19 06:29:15;;;;;;;;;;;;;;;19.64;58.52;102540.94;4992814;28;1749;-33
2022/01/19 06:31:41;;;;;;;;;;;;;;;19.71;58.14;102541.44;4994708;28;1655;-34
2022/01/19 06:34:08;;;;;;;;;;;;;;;19.86;57.12;102553.03;4993793;28;1568;-32
2022/01/19 06:36:35;;;;;;;;;;;;;;;19.77;57.05;102545.56;4977091;28;1641;-32
2022/01/19 06:39:02;;;;;;;;;;;;;;;19.75;57.77;102539.44;4986372;28;2128;-32
2022/01/19 06:41:28;;;;;;;;;;;;;;;19.60;59.00;102547.47;4991591;28;1981;-33
2022/01/19 06:43:56;;;;;;;;;;;;;;;19.53;58.69;102539.91;4994761;28;1554;-32
2022/01/19 06:46:25;;;;;;;;;;;;;;;19.55;58.98;102546.03;4995516;28;1481;-33
2022/01/19 06:48:54;;;;;;;;;;;;;;;19.54;58.51;102552.38;4998366;28;1587;-34
2022/01/19 06:54:04;;;;;;;;;;;;;;;19.52;59.64;102555.13;4997753;28;2102;-33
2022/01/19 06:56:40;;;;;;;;;;;;;;;19.57;57.98;102546.78;5006021;28;1908;-32
2022/01/19 06:59:08;;;;;;;;;;;;;;;19.55;58.68;102548.72;4994565;28;1597;-32
2022/01/19 07:01:36;;;;;;;;;;;;;;;19.52;59.73;102538.16;4994100;28;2000;-32
2022/01/19 07:04:04;;;;;;;;;;;;;;;19.39;59.41;102533.56;4998901;28;2017;-33
2022/01/19 07:06:33;;;;;;;;;;;;;;;19.42;60.12;102549.47;4984732;28;1614;-33
2022/01/19 07:09:01;;;;;;;;;;;;;;;19.33;60.14;102528.56;5010263;28;1471;-34
2022/01/19 07:11:36;;;;;;;;;;;;;;;19.36;60.10;102549.84;4992910;28;1004;-32
2022/01/19 07:14:02;;;;;;;;;;;;;;;19.43;60.15;102544.97;4990409;28;1512;-33
2022/01/19 07:16:32;;;;;;;;;;;;;;;19.50;60.23;102540.06;4992555;28;1471;-32
2022/01/19 07:18:59;;;;;;;;;;;;;;;19.41;58.96;102550.41;4988073;28;1795;-32
2022/01/19 07:21:25;;;;;;;;;;;;;;;19.37;60.53;102546.19;4996780;28;1914;-32
2022/01/19 07:23:59;;;;;;;;;;;;;;;19.36;59.19;102543.59;4993377;28;1322;-32
2022/01/19 07:26:28;;;;;;;;;;;;;;;19.27;59.71;102539.69;4984339;28;1460;-32
2022/01/19 07:28:57;;;;;;;;;;;;;;;19.20;59.58;102533.84;5001968;28;1447;-33
2022/01/19 07:31:26;;;;;;;;;;;;;;;19.19;60.60;102524.06;4996581;28;1578;-32
2022/01/19 07:33:56;;;;;;;;;;;;;;;19.17;59.71;102542.06;4989048;28;1918;-32
2022/01/19 07:36:25;;;;;;;;;;;;;;;19.19;60.64;102531.25;4988370;28;1992;-32
2022/01/19 07:38:52;;;;;;;;;;;;;;;19.24;59.89;102532.69;4987792;28;1492;-32
2022/01/19 07:41:22;;;;;;;;;;;;;;;19.25;59.58;102538.91;4999837;28;1849;-33
2022/01/19 07:43:49;;;;;;;;;;;;;;;19.24;59.65;102524.66;4997389;28;1537;-32
2022/01/19 07:46:19;;;;;;;;;;;;;;;19.36;60.70;102522.16;5001377;28;1526;-33
2022/01/19 07:48:49;;;;;;;;;;;;;;;19.35;59.59;102513.25;4990847;28;1608;-33
2022/01/19 07:51:24;;;;;;;;;;;;;;;19.47;59.32;102519.66;4989918;28;1489;-33
2022/01/19 07:53:52;;;;;;;;;;;;;;;19.58;59.94;102527.06;4992758;28;1419;-34
2022/01/19 07:56:24;;;;;;;;;;;;;;;19.52;59.40;102522.06;4990998;28;1760;-34
2022/01/19 07:58:53;;;;;;;;;;;;;;;19.50;60.59;102507.88;4995745;28;1816;-34
2022/01/19 08:01:20;;;;;;;;;;;;;;;19.50;59.87;102511.44;4997952;28;1714;-34
2022/01/19 08:06:29;;;;;;;;;;;;;;;19.53;59.09;102518.44;4978938;28;2600;-34
2022/01/19 08:08:56;;;;;;;;;;;;;;;19.51;60.04;102514.97;4995225;28;1794;-36
2022/01/19 08:11:23;;;;;;;;;;;;;;;19.62;60.55;102520.53;4993856;28;1661;-34
2022/01/19 08:13:51;;;;;;;;;;;;;;;19.60;59.21;102526.00;4998463;28;1935;-35
2022/01/19 08:16:21;;;;;;;;;;;;;;;19.70;60.18;102528.13;5008414;28;1989;-34
2022/01/19 08:18:50;;;;;;;;;;;;;;;19.68;59.00;102531.75;5002866;28;1479;-34
2022/01/19 08:21:17;;;;;;;;;;;;;;;19.80;59.90;102523.91;4991848;28;1429;-34
2022/01/19 08:23:49;;;;;;;;;;;;;;;19.79;60.11;102531.06;4991451;28;1906;-33
2022/01/19 08:26:24;;;;;;;;;;;;;;;19.82;60.10;102540.78;4984721;28;1397;-34
2022/01/19 08:28:52;;;;;;;;;;;;;;;19.89;59.79;102530.50;4991941;28;1592;-33
2022/01/19 08:31:21;;;;;;;;;;;;;;;19.90;59.32;102542.97;5004478;28;1797;-33
2022/01/19 08:33:47;;;;;;;;;;;;;;;19.82;60.16;102530.03;4998602;28;1668;-33
2022/01/19 08:36:15;;;;;;;;;;;;;;;19.77;60.48;102533.00;5005395;28;1977;-33
2022/01/19 08:38:43;;;;;;;;;;;;;;;19.70;60.08;102531.66;4996819;28;1697;-33
2022/01/19 08:41:14;;;;;;;;;;;;;;;19.50;60.30;102532.91;4989079;28;1731;-34
2022/01/19 08:43:41;;;;;;;;;;;;;;;19.48;59.64;102530.31;4987144;28;2050;-34
2022/01/19 08:46:10;;;;;;;;;;;;;;;19.44;59.13;102525.25;4976060;28;1002;-33
2022/01/19 08:48:40;;;;;;;;;;;;;;;19.39;59.23;102520.13;4980649;28;1914;-34
2022/01/19 08:51:08;;;;;;;;;;;;;;;19.43;58.58;102512.78;4989753;28;1696;-33
2022/01/19 08:53:42;;;;;;;;;;;;;;;19.41;59.46;102512.84;4986199;28;1556;-33
2022/01/19 08:56:11;;;;;;;;;;;;;;;19.39;59.75;102504.03;4988507;28;2068;-34
2022/01/19 08:58:43;;;;;;;;;;;;;;;19.36;58.77;102511.41;4991761;28;1955;-34
2022/01/19 09:01:12;;;;;;;;;;;;;;;19.41;59.36;102506.63;4986547;28;1528;-34
2022/01/19 09:03:42;;;;;;;;;;;;;;;19.39;59.71;102506.72;4987979;28;1914;-34
2022/01/19 09:06:09;;;;;;;;;;;;;;;19.42;58.96;102506.56;4988883;28;1673;-33
2022/01/19 09:08:36;;;;;;;;;;;;;;;19.44;59.54;102501.94;4980976;28;1088;-33
2022/01/19 09:11:06;;;;;;;;;;;;;;;19.42;59.00;102500.34;4975302;28;1585;-34
2022/01/19 09:13:40;;;;;;;;;;;;;;;19.35;59.77;102489.09;4998939;28;1811;-34
2022/01/19 09:16:12;;;;;;;;;;;;;;;19.36;58.08;102493.53;4990333;28;1923;-33
2022/01/19 09:18:41;;;;;;;;;;;;;;;19.39;58.13;102490.63;4989736;28;1669;-34
2022/01/19 09:21:10;;;;;;;;;;;;;;;19.43;58.71;102500.22;4980083;28;1616;-33
2022/01/19 09:23:40;;;;;;;;;;;;;;;19.43;58.14;102489.47;4985950;28;1910;-33
2022/01/19 09:26:14;;;;;;;;;;;;;;;19.43;58.88;102478.75;4981524;28;1849;-34
2022/01/19 09:28:41;;;;;;;;;;;;;;;19.45;57.98;102475.97;4980769;28;1781;-34
2022/01/19 09:31:16;;;;;;;;;;;;;;;19.38;58.39;102454.06;4995862;28;1642;-33
2022/01/19 09:33:55;;;;;;;;;;;;;;;19.36;57.08;102468.50;4992559;28;1780;-33
2022/01/19 09:36:31;;;;;;;;;;;;;;;19.32;57.38;102454.44;4978453;28;1553;-33
2022/01/19 09:39:01;;;;;;;;;;;;;;;19.35;56.57;102430.09;4985259;28;1610;-33
2022/01/19 09:41:29;;;;;;;;;;;;;;;19.37;56.29;102420.13;4983325;28;1657;-34
2022/01/19 09:43:56;;;;;;;;;;;;;;;19.18;56.55;102441.88;4992698;28;1902;-33
2022/01/19 09:46:29;;;;;;;;;;;;;;;19.24;54.98;102427.25;4997276;28;1741;-34
2022/01/19 09:48:59;;;;;;;;;;;;;;;19.24;53.62;102446.00;4987365;28;1765;-34
2022/01/19 09:51:26;;;;;;;;;;;;;;;19.38;52.53;102427.22;4992603;28;1697;-33
2022/01/19 09:53:55;;;;;;;;;;;;;;;19.63;53.01;102426.50;5000752;28;1713;-34
2022/01/19 09:56:22;;;;;;;;;;;;;;;19.51;53.86;102446.06;4992006;28;1472;-34
2022/01/19 10:29:20;;;;;;;;;;;;;;;19.17;55.29;102413.34;4617785;27;10001805;-35
2022/01/19 10:31:49;;;;;;;;;;;;;;;19.23;54.99;102412.09;5033331;28;1998;-35
2022/01/19 10:34:20;;;;;;;;;;;;;;;19.36;55.25;102405.00;5070894;27;2049;-35
2022/01/19 10:36:50;;;;;;;;;;;;;;;19.29;55.35;102382.19;5035849;28;1910;-35
2022/01/19 10:39:18;;;;;;;;;;;;;;;19.25;55.45;102380.66;5034760;27;1512;-35
2022/01/19 10:42:01;;;;;;;;;;;;;;;19.33;55.26;102385.53;5030391;27;1749;-36
2022/01/19 10:44:43;;;;;;;;;;;;;;;19.40;55.19;102358.22;5036032;28;1951;-35
2022/01/19 10:47:10;;;;;;;;;;;;;;;19.42;54.31;102367.03;5038844;28;1982;-35
2022/01/19 10:52:33;;;;;;;;;;;;;;;19.46;55.90;102360.50;5063938;27;2461;-35
2022/01/19 10:55:03;;;;;;;;;;;;;;;19.48;55.50;102365.78;5035852;27;1491;-35
2022/01/19 10:57:35;;;;;;;;;;;;;;;19.48;55.95;102361.28;5035250;28;1906;-35
2022/01/19 11:00:21;;;;;;;;;;;;;;;19.49;55.55;102335.31;5044154;27;1543;-36
2022/01/19 11:05:41;;;;;;;;;;;;;;;19.53;56.14;102326.09;5036415;28;1618;-35
2022/01/19 11:13:42;;;;;;;;;;;;;;;19.63;56.37;102320.97;5031638;28;2391;-35
2022/01/19 11:16:21;;;;;;;;;;;;;;;19.61;55.72;102325.59;5026950;28;1981;-36
2022/01/19 11:18:55;;;;;;;;;;;;;;;19.56;55.71;102327.72;5025328;28;2281;-35
2022/01/19 11:21:26;;;;;;;;;;;;;;;19.56;55.41;102314.31;5014800;28;1738;-35
2022/01/19 11:24:00;;;;;;;;;;;;;;;19.59;55.78;102309.56;5023791;28;1653;-35
2022/01/19 11:26:36;;;;;;;;;;;;;;;19.58;57.17;102328.47;5023194;28;1667;-34
2022/01/19 11:29:13;;;;;;;;;;;;;;;19.53;57.02;102315.34;5085572;28;1655;-35
2022/01/19 11:31:43;;;;;;;;;;;;;;;19.53;56.88;102298.41;5093638;28;1548;-35
2022/01/19 11:34:11;;;;;;;;;;;;;;;19.51;57.12;102294.97;5093836;28;2080;-35
2022/01/19 11:36:42;;;;;;;;;;;;;;;19.53;57.36;102309.13;5092707;28;1979;-34
2022/01/19 11:39:10;;;;;;;;;;;;;;;19.51;57.44;102297.63;5093027;28;1753;-34
2022/01/19 11:41:42;;;;;;;;;;;;;;;19.51;56.75;102292.28;5086009;28;1784;-35
2022/01/19 11:44:11;;;;;;;;;;;;;;;19.50;57.11;102309.31;5097018;28;1590;-35
2022/01/19 11:46:40;;;;;;;;;;;;;;;19.51;56.47;102305.69;5095529;28;1416;-35
2022/01/19 11:49:11;;;;;;;;;;;;;;;19.47;57.54;102283.56;5089398;28;1138;-35
2022/01/19 11:51:39;;;;;;;;;;;;;;;19.46;56.26;102285.41;5077954;28;1469;-35
2022/01/19 11:54:12;;;;;;;;;;;;;;;19.53;56.49;102295.72;5086214;28;1634;-34
2022/01/19 11:57:02;;;;;;;;;;;;;;;19.51;56.38;102278.84;5084973;28;1976;-35
2022/01/19 12:00:01;;;;;;;;;;;;;;;19.44;57.52;102281.94;5095532;28;1551;-34
2022/01/19 12:02:37;;;;;;;;;;;;;;;19.45;57.43;102264.88;5094312;28;1476;-35
2022/01/19 12:05:16;;;;;;;;;;;;;;;19.46;56.70;102277.34;5083682;28;1485;-35
2022/01/19 12:07:53;;;;;;;;;;;;;;;19.43;56.51;102253.38;5080805;28;1796;-34
2022/01/19 12:10:24;;;;;;;;;;;;;;;19.44;57.19;102257.81;5089188;28;2367;-34
2022/01/19 12:13:28;;;;;;;;;;;;;;;19.44;57.82;102260.50;5076858;28;1181;-34
2022/01/19 12:15:58;;;;;;;;;;;;;;;19.42;57.70;102248.16;5026495;28;1134;-35
2022/01/19 12:18:46;;;;;;;;;;;;;;;19.44;57.22;102256.97;5080595;28;1992;-34
2022/01/19 12:21:37;;;;;;;;;;;;;;;19.47;57.22;102248.69;5089945;28;1927;-34
2022/01/19 12:24:21;;;;;;;;;;;;;;;19.44;57.64;102263.16;5094970;28;1727;-34
2022/01/19 12:26:48;;;;;;;;;;;;;;;19.45;57.07;102239.88;5085950;28;1786;-35
2022/01/19 12:29:36;;;;;;;;;;;;;;;19.51;56.33;102249.34;5083331;28;1945;-35
2022/01/19 12:32:04;;;;;;;;;;;;;;;19.55;56.67;102246.34;5103644;28;1740;-35
2022/01/19 12:34:46;;;;;;;;;;;;;;;19.64;55.65;102229.63;5092810;28;1524;-35
2022/01/19 12:37:36;;;;;;;;;;;;;;;19.83;56.19;102231.94;5087236;28;1991;-35
2022/01/19 12:40:32;;;;;;;;;;;;;;;19.74;56.14;102221.84;5090342;28;1744;-34
2022/01/19 12:43:00;;;;;;;;;;;;;;;19.63;56.56;102227.91;5099649;28;1699;-35
2022/01/19 12:45:27;;;;;;;;;;;;;;;19.70;56.23;102228.34;5098589;28;1612;-34
2022/01/19 12:47:55;;;;;;;;;;;;;;;19.73;56.40;102220.13;5093483;28;1613;-35
2022/01/19 12:50:46;;;;;;;;;;;;;;;19.74;56.99;102218.31;5086461;28;1622;-34
2022/01/19 12:53:15;;;;;;;;;;;;;;;19.45;57.01;102221.94;5092716;28;1667;-34
2022/01/19 12:55:49;;;;;;;;;;;;;;;19.42;56.81;102219.50;5088917;28;1607;-34
2022/01/19 12:58:20;;;;;;;;;;;;;;;19.43;56.81;102228.38;5083072;28;1910;-35
2022/01/19 13:00:49;;;;;;;;;;;;;;;19.41;57.80;102220.44;5082609;28;1086;-34
2022/01/19 13:03:22;;;;;;;;;;;;;;;19.42;56.94;102208.75;5081891;28;1579;-34
2022/01/19 13:05:54;;;;;;;;;;;;;;;19.37;56.96;102201.97;5087825;28;1829;-35
2022/01/19 13:08:32;;;;;;;;;;;;;;;19.35;56.87;102217.31;5084408;28;1744;-35
2022/01/19 13:11:11;;;;;;;;;;;;;;;19.36;56.90;102221.69;5086275;28;1330;-34
2022/01/19 13:13:52;;;;;;;;;;;;;;;19.33;57.30;102206.69;5085090;28;1871;-34
2022/01/19 13:16:30;;;;;;;;;;;;;;;19.33;57.90;102195.09;5091112;28;1068;-34
2022/01/19 13:19:02;;;;;;;;;;;;;;;19.28;57.35;102198.94;5079082;28;2021;-34
2022/01/19 13:21:29;;;;;;;;;;;;;;;19.29;57.68;102186.41;5085294;28;1577;-34
2022/01/19 13:23:57;;;;;;;;;;;;;;;19.30;57.09;102185.44;5087285;28;1610;-34
2022/01/19 13:26:35;;;;;;;;;;;;;;;19.26;58.16;102181.25;5080065;28;1800;-34
2022/01/19 13:29:11;;;;;;;;;;;;;;;19.27;58.14;102159.66;5086405;28;1416;-34
2022/01/19 13:31:41;;;;;;;;;;;;;;;19.27;57.57;102148.09;5075043;28;1399;-34
2022/01/19 13:34:10;;;;;;;;;;;;;;;19.28;57.60;102157.88;5074031;28;1045;-34
2022/01/19 13:36:38;;;;;;;;;;;;;;;19.26;57.77;102152.59;5083153;28;1314;-34
2022/01/19 13:39:06;;;;;;;;;;;;;;;19.28;57.42;102149.81;5080507;28;1905;-34
2022/01/19 13:41:44;;;;;;;;;;;;;;;19.26;58.05;102162.47;5080465;28;1761;-35
2022/01/19 13:44:15;;;;;;;;;;;;;;;19.28;57.92;102163.25;5083302;28;1665;-38
2022/01/19 13:46:44;;;;;;;;;;;;;;;19.25;58.06;102156.22;5073990;28;1253;-34
2022/01/19 13:49:11;;;;;;;;;;;;;;;19.25;57.88;102160.75;5082506;28;1148;-34
2022/01/19 13:51:44;;;;;;;;;;;;;;;19.25;58.19;102161.59;5082760;28;1940;-34
2022/01/19 13:54:15;;;;;;;;;;;;;;;19.22;57.94;102156.47;5082349;28;1325;-34
2022/01/19 13:56:45;;;;;;;;;;;;;;;19.26;57.67;102170.53;5075601;28;1945;-35
2022/01/19 13:59:13;;;;;;;;;;;;;;;19.20;57.52;102152.13;5075877;28;1909;-34
2022/01/19 14:01:49;;;;;;;;;;;;;;;19.20;57.36;102152.13;5092106;28;1606;-35
2022/01/19 14:04:30;;;;;;;;;;;;;;;19.16;57.82;102139.91;5078208;28;1603;-35
2022/01/19 14:07:03;;;;;;;;;;;;;;;19.13;58.32;102118.66;5078405;28;1642;-35
2022/01/19 14:09:31;;;;;;;;;;;;;;;19.12;57.52;102143.75;5084405;28;1030;-34
2022/01/19 14:12:06;;;;;;;;;;;;;;;19.12;58.42;102138.38;5078387;28;1018;-35
2022/01/19 14:14:39;;;;;;;;;;;;;;;19.07;57.57;102136.88;5077579;28;1811;-34
2022/01/19 14:17:11;;;;;;;;;;;;;;;19.11;58.28;102123.28;5089683;28;1926;-34
2022/01/19 14:19:48;;;;;;;;;;;;;;;19.10;57.44;102113.50;5085147;28;1058;-34
2022/01/19 14:22:16;;;;;;;;;;;;;;;19.11;58.36;102117.91;5076361;28;1138;-34
2022/01/19 14:24:47;;;;;;;;;;;;;;;19.10;57.53;102108.13;5083540;28;1307;-34
2022/01/19 14:27:18;;;;;;;;;;;;;;;19.08;57.92;102127.03;5073906;28;1927;-35
2022/01/19 14:29:57;;;;;;;;;;;;;;;19.05;57.45;102122.72;5082911;28;1622;-34
2022/01/19 14:32:41;;;;;;;;;;;;;;;19.02;57.46;102125.63;5088001;28;1574;-35
2022/01/19 14:35:39;;;;;;;;;;;;;;;19.02;57.64;102122.06;5079180;28;1822;-34
2022/01/19 14:38:14;;;;;;;;;;;;;;;19.02;58.13;102133.66;4994537;28;1906;-35
2022/01/19 14:41:06;;;;;;;;;;;;;;;19.05;58.37;102138.81;5063959;28;1695;-35
2022/01/19 14:43:41;;;;;;;;;;;;;;;19.04;58.11;102131.75;5052394;28;2209;-34
2022/01/19 14:46:11;;;;;;;;;;;;;;;19.07;58.25;102130.66;5080606;28;1119;-35
2022/01/19 14:48:46;;;;;;;;;;;;;;;19.04;57.98;102125.53;5086200;28;1773;-34
2022/01/19 14:51:23;;;;;;;;;;;;;;;19.05;57.26;102128.06;5087293;28;1806;-34
2022/01/19 14:53:50;;;;;;;;;;;;;;;19.01;57.98;102112.31;5085231;28;1295;-35
2022/01/19 14:56:17;;;;;;;;;;;;;;;19.03;57.52;102131.84;5080842;28;2374;-35
2022/01/19 14:58:58;;;;;;;;;;;;;;;19.02;57.69;102133.66;5076595;28;1905;-34
2022/01/19 15:01:25;;;;;;;;;;;;;;;18.97;58.22;102119.69;5075672;28;1099;-34
2022/01/19 15:03:51;;;;;;;;;;;;;;;18.94;58.10;102109.19;5086714;28;1567;-34
2022/01/19 15:06:18;;;;;;;;;;;;;;;18.96;57.79;102107.25;5087959;28;1386;-34
2022/01/19 15:08:47;;;;;;;;;;;;;;;18.96;57.92;102109.06;5087843;28;1442;-34